Detall de PIREP

Printer-friendly versionPDF version

[2011/02/10 21:51:00]
Flight IATA:CT3103
Pilot Number:026
Company ICAO:CAT
Aircraft Type:DC85/A
PAX:132
Departing Airport: LEPA
Destination Airport: LIEA
Alternate Airport:LIEO
Online: VATSIM
Route:MORSS UM603 ELSAG
Flight Level:F260
No Slew and time accel
No pause
Crash detect
Detect pilot in Cockpit between each 30 and 45 minutes
21:51 Zero fuel Weight: 178687 Lbs, Fuel Weight: 24001 Lbs
21:51 VATSIM:LEPA 102130Z VRB01KT 9999 FEW018 05/04 Q1024 NOSIG
21:51 VATSIM:LIEA 102120Z 00000KT 9999 FEW030 04/04 Q1025
21:51 VOICE CATALONIAN / INTERHUB ROUTE CT3103
21:56 Parking Brakes off
22:08 Take-off
22:08 Take off Weight: 201081 Lbs
22:08 Wind: 001º @ 001 Knots Heading: 238º
22:08 POS N39º 33´ 06´´ E002º 43´ 15´´
22:08 Gear Up: 173 Knots
22:08 Flaps:3 at 173 Knots
22:10 Flaps:2 at 185 Knots
22:10 Flaps:1 at 219 Knots
22:11 Flaps:0 at 222 Knots
22:22 TOC
22:22 Fuel Weight: 18294 Lb
22:23 Wind:181º@010 Knots Heading: 060º Ground Speed: 389 Knots Altitude 26345 ft
22:37 TOD
22:37 Fuel Weight: 15004 Lb
22:38 Wind:216º@003 Knots Heading: 074º Ground Speed: 440 Knots Altitude 24947 ft
22:53 Wind:263º@000 Knots Heading: 084º Ground Speed: 250 Knots Altitude 6564 ft
22:57 Flaps:1 at 223 Knots
22:58 Gear Down: 197 Knots
22:59 Flaps:2 at 177 Knots
22:59 Flaps:3 at 170 Knots
23:00 Flaps:4 at 166 Knots
23:00 Flaps:5 at 155 Knots
23:01 TouchDown:Rate -294 ft/min Speed: 133 Knots
23:01 VATSIM:LIEA 102220Z 00000KT 4000 MIFG NSC 03/03 Q1025
23:01 Land
23:01 Wind:245º@000 Knots
23:01 Heading: 023º
23:01 Flight Duration: 00:53
23:01 Landing Weight: 191268 Lbs
23:01 POS N40º 37´ 44´´ E008º 17´ 21´´
23:06 Parking brakes on
23:06 Block to Block Duration: 01:10
23:06 Final Fuel: 12195 Lbls
23:06 Spent Fuel: 11805 Lbls
23:06 Flight Length: 304 NM
23:06 TOD Land Length: 123 NM

Exportar CSV

Powered by Drupal - Modified by Danger4k